KLAF/LAF METAR and TAF weather

Enter ICAO airport designator
Station Type Date Time Source
KLAF METAR 2020/07/14 22:54 UTC NOAA

KLAF 142254Z 18006KT 10SM CLR 28/16 A3001 RMK AO2 SLP158 T02830161


Station Type Date Time Source
KLAF Decoded METAR 2020/07/14 22:54 UTC NOAA

LAFAYETTE PURDUE UNIV AIRPORT , IN, United States (KLAF) 40-25N 86-57W 182M
Jul 14, 2020 - 06:54 PM EDT / 2020.07.14 2254 UTC
Wind: from the S (180 degrees) at 7 MPH (6 KT):0
Visibility: 10 mile(s):0
Sky conditions: clear
Temperature: 82.9 F (28.3 C)
Dew Point: 61.0 F (16.1 C)
Relative Humidity: 47%
Pressure (altimeter): 30.01 in. Hg (1016 hPa)
ob: KLAF 142254Z 18006KT 10SM CLR 28/16 A3001 RMK AO2 SLP158 T02830161
cycle: 23

Station Type Date Time Source
KLAF TAF 2020/07/14 18:22 UTC NOAA

TAF KLAF 141720Z 1418/1518 16005KT P6SM FEW045
FM142300 16005KT P6SM FEW250
FM151500 19007KT P6SM FEW050

Example: see airport list